Terminal Aerodrome Forecast
Issued by NWS

Home | Current Version | Previous Version | Text Only | Print | Product List | Glossary On
Versions: 1 2 3 4 5 6 7 8 9 10 11 12 13 14 15 16 17 18 19
443
FTUS41 KAKQ 112338
TAFPHF
TAF
KPHF 112338Z 1200/1224 32006KT P6SM SKC
     FM121200 02004KT P6SM OVC100
     FM121900 12006KT 2SM -SN BR OVC025
     FM122100 11005KT 1/2SM SN FG OVC015=

USA.gov is the U.S. government's official web portal to all federal, state and local government web resources and services.